Timeline UpdatesTrip UpdatesNews PostsPvt Posts♥♥Travel TipsAdmin PostsConv PostsFollowed PostsChat RequestsBlog PostsPNR Posts

Disclaimer
Search
 
 
Sat Oct 25, 2014 17:28:02 ISTHomeTrainsΣChainsAtlasPNRForumGalleryNewsFAQTripsMembersLoginFeedback
No Recent News for this Train
Other Trains in the News **new
Latest...
.
Tue Dec 31, 2013 (01:08PM)
⇐ Return Journey: Train# 12971

12972/Bhavnagar Bandra Express

Time-Table HAS CHANGED.
Sep 01 2014 (11:39PM)
Change Departure Station:
Change Arrival Station:
Post a Train Travel TipPost a Train Travel Tip **new
Post a Comment/Question/Picture/VideoPost a Comment/Question/Picture/Video
Pantry/Catering
✕ NO Pantry Car
✓ Catering Avbl
RSA - Rake Sharing
No RSA
Rake/Coach Composition
LOCO-SLR-GEN-GEN-S1-S2-S3-S4-S5-S6-S7-S8-S9-S10-S11-S12-B1-B2-A1-GEN-GEN-SLR
Loco
BVC=>ADI: VTA WDM 3A ADI=>BDTS: BRC WAP 4/4E/5
News    PNR    Forum    Time-Table    Availability    Fare Chart    Map    Arr/Dep History    Trips    Gallery    ΣChains    X/O    Timeline    
Travel Time: 8h 8m    8 halts    Distance: 482 km    Avg Speed: 59 km/hr
Type: SuperFast
Zone: WR/Western
Departs @ 02:12 (Avg 10m late)
Platform# 6
SMTWTFS
Ahmedabad Junction/ADI 
Arrives @ 10:20 (Avg 6m late)
Platform# 3
SMTWTFS
Mumbai Bandra Terminus/BDTS 

8 halts. 96 intermediate Stations between Ahmedabad Junction and Mumbai Bandra Terminus

Hide intermediate Stations  Show Old Time-Table

#TrkCodeStation NameX/OArrivesAvgDepartsAvgHaltPFDay#KmSpeedElevZoneAddress
1|--|BVCBhavnagar Terminus (2)  -20:30+011-298.32711mWRBhavnagar, Gujarat
2|--|BVPBhavnagar Para  20:34 20:36+620:36 20:38+62m--1-295.65613mWRBhavnagar, Gujarat
2.1|--|NRODNari RoadX  20:42-20:42-  1-291.5 5617mWRSH 6, Gujarat
2.2|--|VTJVartej  20:46-20:46-  1-288.4 5624mWRBhavnagar, Gujarat
2.3|--|KDMRKodiyar Mandir  20:51-20:51-  1-283.1 5692mWRSH 21, Gujarat
3|--|SOJNSihor Gujarat  20:55 20:57+1020:57 20:58+102 1m--1-277.95642mWRShihor, Gujarat
3.1|--|MTSKMota Surka  21:02-21:02-  1-274.0 5640mWRState Highway 25, Gujarat
4|--|SGDSongadh (1)  21:04 21:06+1221:06 21:09+122 3m11-270.47640mWRBhavnagar, Gujarat
4.1|--|BJUDBajud  21:14-21:14-  1-264.3 7637mWRState Highway 31, Gujarat
4.2|--|SOASanosra  21:17-21:17-  1-260.0 7636mWRState Highway 25, Gujarat
5|--|DLJDhola Junction  21:26+1221:28+122m21-249.07237mWRDhola, Gujarat
5.1|--|UJUjalvavX  21:37-21:37-  1-238.8 7264mWRState Highway 31, Gujarat
5.2|--|ALMRAlampur  21:42-21:42-  1-232.1 7259mWRState Highway 31, Gujarat
5.3|--|NGANingala Junction  21:48-21:48-  1-224.6 7257mWRState Highway 117, Gujarat
5.4|--|LTDLathidad  21:55-21:55-  1-217.1 7268mWRTajpar Rd, Gujarat
6|--|BTDBotad Junction (5)O  22:04+1322:06+132m11-206.17096mWRBotad, Gujarat
6.1|--|KDIKundli  22:16-22:16-  1-194.7 7086mWRState Highway 38, Gujarat
7|--|RURRanpur  22:23 22:25+1222:25 22:26+122 1m--1-183.97961mWRRanpur, Gujarat
7.1|--|VJKVejalka  22:32-22:32-  1-176.6 7966mWRState Highway 38, Gujarat
7.2|--|CDAChuda  22:38-22:38-  1-167.6 7963mWRState Highway 38, Gujarat
8|--|LMLimbdi (1)  22:44 22:46+1122:46 22:47+102 1m11-157.67551mWRLimbdi, Gujarat
8.1|--|WCWadhwan City  23:03-23:03-  1-137.3 7567mWRSurendranagar, Gujarat
9|--|JVNJorawarnagar Junction (1)  23:04 23:06-23:06 23:07-2 1m11-133.74469mWRSurendra Nagar, Gujarat
9.1|--|SRGTSurendranagar Gate (1)  23:11-23:11-  1-130.9 4471mWRSurendranagar, Gujarat
9.2|-=!BLRDBala Road  23:24-23:24-  1-121.5 4461mWRState Highway 19, Gujarat
9.3!==!BRGPBajrangpura  23:32-23:32-  1-115.0 4449mWRBajrangpura, Gujarat
9.4!==!LTRLakhtarX  23:40-23:40-  1-109.8 4451mWRLakhtar, Gujarat
9.5!==!KXZKesariya Road  23:48-23:48-  1-103.9 4433mWRState Highway 17, Gujarat
9.6!==|LPRLilapur Road  23:56-23:56-  1-97.5 4424mWRState Highway 17, Gujarat
9.7|==|BMMBhaskarpara  00:05-00:05-  2-90.8 4417mWRNational Highway 947, Gujarat
9.8|==!SRSabli Road  00:15-00:15-  2-83.9 4420mWRState Highway 17, Gujarat
9.9!==!KHRSKhareshwar Road  00:20-00:20-  2-80.0 4421mWRState Highway 7, Gujarat
9.10!==|VNRDVani Road  00:26-00:26-  2-75.8 4425mWRState Highway 17, Gujarat
10|==|VGViramgam Junction (5)  00:40+2100:42+222m22-65.45629mWRViramgam, Gujarat
10.1|==|XSKSokaliX  00:49-00:49-  2-59.2 5627mWRSokali, Gujarat
10.2|==|JKAJakhvadaX  00:55-00:55-  2-53.1 5631mWRState Highway 17, Gujarat
10.3|==|VCNVirochannagar  01:03-01:03-  2-45.4 5633mWRState Highway 17, Gujarat
10.4|==|CEChharodi  01:10-01:10-  2-39.1 5629mWRSH 17, Gujarat
10.5|==|WSEVasan Iyawa  01:16-01:16-  2-33.4 5636mWRState Highway 17, Gujarat
10.6|==|SAUSanand  01:22-01:22-  2-28.4 5640mWRSanand, Gujarat
10.7|==|GGMGora GhumaX  01:28-01:28-  2-22.1 5645mWRParthna Upvan Rd, Gujarat
10.8|==|ABDAmbli Road  01:34-01:34-  2-16.8 5650mWRAhmedabad, Gujarat
10.9|==/CLDYChandlodiya  01:40-01:40-  2-11.1 5659mWRAhmedabad, Gujarat
10.10/==/SBTFSabarmati F Cabin  01:45-01:45-  2-6.4 5655mWRAhmedabad, Gujarat
10.11/==/SBISabarmati Junction (3)  01:46-01:46-  2-5.5 5655mWRAhmadabad, Gujarat
10.12/==/SBTSabarmati Junction (3)  01:46-01:46-  2-5.5 5652mWRAhmedabad, Gujarat
10.13/==/SBTASabarmati A Cabin  01:49-01:49-  2-3.1 5656mWRSabarmati A Cabin, Gujarat
11/==/ADIAhmedabad Junction (12)»X  01:52+1102:12+1020m620.06451mWRAhmedabad, Gujarat
11.1/==/KKFKankaria  02:14-02:14-  21.8 6448mWRAhmedabad, Gujarat
11.2/==/MANManinagar (2)X  02:15-02:15-  23.2 6450mWRAhmadabad, Gujarat
11.3/==/VTAVatva (4)  02:20-02:20-  28.0 6449mWRDist. Ahmedabad 382445, Gujarat
11.4/==/GERGeratpur (2)  02:25-02:25-  213.3 6444mWRAhmadabad, Gujarat
11.5/==/BJDBarejadi Nandej (3)X  02:28-02:28-  216.6 6442mWRBareja-Barejadi Rd, Gujarat
11.6/==/KANJKanij (3)  02:32-02:32-  221.0 6439mWRBareja-Barejadi Rd, Gujarat
11.7/==/NEPNenpur (2)O  02:35-02:35-  223.8 6435mWRState Highway 3, Gujarat
11.8/==/MHDMahemdavad Kheda Road (4)X  02:38-02:38-  228.0 6437mWRMahemdavad, Gujarat
11.9/==/GTEGothaj (2)X  02:46-02:46-  236.3 6432mWRState Highway 3, Gujarat
12/==/NDNadiad Junction (4)X  02:55+2802:57+282m1245.66237mWRNadiad, Gujarat
12.1/==/UTDUtarsanda (4)X  03:02-03:02-  251.1 6240mWRUttarsanda, Gujarat
12.2/==/KBRVKanjari Boriyavi Junction (4)X  03:08-03:08-  256.6 6239mWRKanjari, Gujarat
13/==/ANNDAnand Junction (6)X  03:15+2303:17+232m--264.15044mWRAnand, Gujarat
13.1/==/VXDVadod (3)  03:25-03:25-  270.9 5044mWRAnand District, Gujarat
13.2/==/ADDAdas Road (4)  03:30-03:30-  275.0 5042mWRNational Highway 8, Gujarat
13.3/==/VDAVasad Junction (3)  03:36-03:36-  279.6 5040mWRVasad, Gujarat
13.4/==/NDRNandesari (2)X  03:42-03:42-  284.6 5042mWRNandesari, Gujarat
13.5/==/RNORanoli (2)  03:47-03:47-  288.8 5039mWRVadodara District, Gujarat
13.6/==/KRCAKarachiya Yard  03:49-03:49-  290.6 5039mWRVadodara, Gujarat
13.7/==/BJWBajva (3)  03:51-03:51-  292.6 5038mWRVadodara, Gujarat
13.8/==/BRGYVadodara D Cabin  03:59-03:59-  299.2 5036mWRVadodara, Gujarat
14/==/BRCVadodara Junction (7)X  04:00+1804:05+195m3299.87436mWRVadodara 390005, Gujarat
14.1/==/VSVishvamitri (4)X  04:07-04:07-  2102.8 7430mWRVadodara, Gujarat
14.2/==/MPRMakarpura (4)  04:12-04:12-  2108.5 7430mWRVadodara, Gujarat
14.3/==/VRMVarnama (2)X  04:17-04:17-  2114.1 7428mWRVadodara, Gujarat
14.4/==/ITAItola (4)X  04:20-04:20-  2118.1 7427mWRNational Highway 8 Vadodara, Gujarat
14.5/==/KSPRKashipura Sarar (2)XO  04:23-04:23-  2121.9 7426mWRGIDC Industrial Area, Gujarat
14.6/==/MYGMiyagam Karjan (2)  04:29-04:29-  2129.6 7429mWRKarjan, Gujarat
14.7/==/MYGLMiyagam Karjan Junction NGX  04:29-04:29-  2129.7 740mWRKarjan, Gujarat
14.8/==/LKDLakodara (4)XO  04:36-04:36-  2137.7 7426mWRNH 8, Gujarat
14.9/==/PLJPalej (4)X  04:41-04:41-  2144.9 7429mWRPalej, Gujarat
14.10/==/VREVarediya (4)X  04:47-04:47-  2151.5 7421mWRNH 8, Gujarat
14.11/==/NIUNabipur (3)X  04:52-04:52-  2158.3 7424mWRNabipur, Gujarat
14.12/==/CVJChavaj (2)X  04:58-04:58-  2165.3 7420mWRBharuch, Gujarat
14.13/==/BHBharuch Junction (5)X  05:02-05:02-  2170.3 7419mWRBharuch, Gujarat
14.14/==/AKVAnkleshwar Junction (4)  05:10-05:10-  2179.7 7419mWRAnkleshwar, Gujarat
14.15/==/SNJLSanjali (2)X  05:15-05:15-  2185.8 7423mWRSanjali, Gujarat
14.16/==/PAOPanoli (3)  05:18-05:18-  2190.0 7429mWRPanoli, Gujarat
14.17/==/HATHathuran (2)X  05:21-05:21-  2193.8 7432mWRKosamba, Gujarat
14.18/==/KSBKosamba Junction (3)X  05:25-05:25-  2198.2 7430mWRKosamba, Gujarat
14.19/==/KIMKim (2)  05:31-05:31-  2206.0 7418mWRNH 8, Gujarat
14.20/==/KDSDKudsad (2)  05:33-05:33-  2208.8 7418mWRNH 8, Gujarat
14.21/==/SYNSayan (3)XO  05:39-05:39-  2215.9 7421mWRSayan Satellite town, Gujarat
14.22/==/GTXGothangam (2)  05:41-05:41-  2218.9 7419mWRAmroli Sayan Rd, Gujarat
14.23/==/KSEKosad (2)  05:44-05:44-  2222.5 7417mWRSurat, Gujarat
14.24/==/URNUtran (3)X  05:47-05:47-  2225.7 7415mWRSurat, Gujarat
15/==/STSurat (4)X  05:50+1905:55+205m32229.65619mWRSurat 395001, Gujarat
15.1/==/UDNUdhna Junction (3)  05:59-05:59-  2233.6 5616mWRUdhna 394210, Gujarat
15.2/==/BHETBhestan (2)  06:04-06:04-  2238.4 5613mWRSurat, Gujarat
15.3/==/SCHSachin (3)O  06:10-06:10-  2244.1 5611mWRKansad Road Sachin, Gujarat
15.4/==/MRLMaroli (3)  06:17-06:17-  2250.8 5615mWRMaroli, Gujarat
15.5/==/NVSNavsari (3)  06:26-06:26-  2259.2 5614mWRNavsari, Gujarat
15.6/==/GNSTGandhi Smriti (2)  06:30-06:30-  2262.2 5616mWRGandhi Smriti Navsari, Gujarat
15.7/==/HXRHansapore (2)  06:31-06:31-  2263.8 5615mWRHansapore, Gujarat
15.8/==/VDHVedchha (3)  06:35-06:35-  2267.6 5613mWRNavsari, Gujarat
15.9/==/ACLAncheli (2)X  06:39-06:39-  2271.0 5620mWRNavsari, Gujarat
15.10/==/AMLAmalsad (3)O  06:43-06:43-  2274.8 5612mWRAmalsad, Gujarat
15.11/==/BIMBilimora Junction (4)  06:49-06:49-  2280.4 5611mWRBilimora, Gujarat
15.12/==/JRSJoravasan (2)  06:53-06:53-  2284.3 5615mWRJoravasan, Gujarat
15.13/==/DGIDungri (3)X  06:59-06:59-  2289.4 5620mWRNH 8, Gujarat
16/==/BLValsad (3)  07:08+1807:10+182m32298.37915mWRValsad, Gujarat
16.1/==/ATULAtul (3)  07:15-07:15-  2305.0 7922mWRValsad, Gujarat
16.2/==/PADPardi (3)X  07:18-07:18-  2309.0 7919mWRValsad, Gujarat
16.3/==/UVDUdvada (3)  07:23-07:23-  2315.0 7918mWRUdvada, Gujarat
16.4/==/BAGDBagwada (2)X  07:25-07:25-  2317.9 7922mWRNH8, Gujarat
17/==/VAPIVapi (3)  07:32 07:30+2007:34 07:32+202m22324.67627mWRVapi, Gujarat
17.1/==/KEBKarambeli (2)  07:37-07:37-  2331.0 7629mWRNational Highway 8, Gujarat
17.2/==/BLDBhilad (3)X  07:41-07:41-  2335.8 7633mWRBhilad, Gujarat
17.3/==/SJNSanjan (3)XO  07:50-07:50-  2347.4 7622mWRSanjan, Gujarat
17.4/==/UBRUmbargam Road (3)  07:54-07:54-  2352.8 7630mWRUmbergaon, Gujarat
17.5/==/BRRDBordi Road (2)X  07:58-07:58-  2357.0 7617mWRBordi, Maharashtra
17.6/==/GVDGholvad (4)X  08:02-08:02-  2361.9 7614mWRGholvad, Maharashtra
17.7/==/DRDDahanu Road (5)  08:11-08:11-  2373.1 7612mWRDahanu, Maharashtra
17.8/==/VGNVangaon (3)  08:20-08:20-  2385.4 7611mWRDist. Palghar, Maharashtra
17.9/==/BORBoisar (3)X  08:28-08:28-  2394.8 7617mWRBoisar Tel.no-02525-266626, Maharashtra
17.10/==/UOIUmroli (2)  08:32-08:32-  2399.7 768mWRBoisar, Maharashtra
17.11/==/PLGPalghar (3)  08:37-08:37-  2406.1 7619mWRPalghar, Maharashtra
17.12/==/KLVKelve Road (3)  08:43-08:43-  2414.5 7610mWRDist. Palghar, Maharashtra
17.13/==/SAHSaphale (2)X  08:49-08:49-  2420.9 768mWRDist. Palghar, Maharashtra
17.14/==/VTNVaitarna (2)X  08:55-08:55-  2428.7 763mWRDist. Palghar, Maharashtra
17.15/==/VRVirar (8)  09:01-09:01-  2437.2 766mWRDist. Palghar, Maharashtra
17.16/==/NSPNallasopara (4)X  09:05-09:05-  2441.4 765mWRNallasopara station Rd, Maharashtra
17.17/==/BSRVasai Road (7)  09:08-09:08-  2445.6 767mWRVasai 401202, Maharashtra
17.18/==/NIGNaigaon (4)X  09:11-09:11-  2449.3 765mWRNaigaon West, Maharashtra
17.19/==/BYRBhayandar (6)  09:15-09:15-  2454.0 766mWRThane, Maharashtra
17.20/==/MIRAMira Road (4)  09:17-09:17-  2457.3 763mWRMira Bhayandar, Maharashtra
17.21/==/DICDahisar (4)  09:20-09:20-  2460.7 7614mWRMumbai, Maharashtra
18/==/BVIMumbai Borivali (8)  09:23 09:22+509:25+42 3m62463.03019mWRMumbai - 400092, Maharashtra
18.1/==/KILEKandivli (4)  09:30-09:30-  2465.8 3014mWRMumbai, Maharashtra
18.2/==/MDDMalad (4)  09:35-09:35-  2467.9 3018mWRMumbai-400064, Maharashtra
18.3/==/GMNGoregaon (5)X  09:39-09:39-  2470.3 3015mWRMumbai - 400104, Maharashtra
18.4/==/JOSJogeshwari (4)  09:46-09:46-  2473.4 3014mWRMumbai, Maharashtra
19/==/ADHMumbai Andheri (9)  09:50+609:52+72m82475.61312mWRMumbai, Maharashtra
19.1/==/VLPVille Parle (6)  10:01-10:01-  2477.6 1311mWRMumbai, Maharashtra
19.2/==/STCSanta Cruz (6)  10:10-10:10-  2479.5 1310mWRMumbai, Maharashtra
19.3/==/KHARKhar (6)  10:16-10:16-  2480.9 137mWRMumbai, Maharashtra
20/==/BDTSMumbai Bandra Terminus (5)•  10:20+6-32481.8-4mWRMumbai 400050, Maharashtra
Scroll to Top
Scroll to Bottom